Time;durP1;ratioP1;P1;durP2;ratioP2;P2;SDS_P1;SDS_P2;PMS_P1;PMS_P2;Temp;Humidity;BMP_temperature;BMP_pressure;BME280_temperature;BME280_humidity;BME280_pressure;Samples;Min_cycle;Max_cycle;Signal;HPM_P1;HPM_P2
2022/02/16 00:02:11;;;;;;;3.20;2.92;;;;;;;7.51;53.31;95231.13;5032069;28;20047;-70
2022/02/16 00:04:37;;;;;;;3.35;3.05;;;;;;;7.67;53.86;95274.88;5050352;28;20730;-70
2022/02/16 00:07:03;;;;;;;5.55;2.88;;;;;;;7.30;54.14;95255.16;5050412;28;20032;-69
2022/02/16 00:09:29;;;;;;;2.42;2.22;;;;;;;6.85;55.46;95266.13;5050018;28;20477;-69
2022/02/16 00:11:54;;;;;;;4.05;2.78;;;;;;;7.43;53.93;95255.56;5050074;28;20474;-70
2022/02/16 00:14:20;;;;;;;4.18;2.65;;;;;;;7.40;54.08;95264.06;5031702;28;20025;-71
2022/02/16 00:16:45;;;;;;;2.85;2.20;;;;;;;7.54;53.07;95260.47;5050107;28;20028;-69
2022/02/16 00:19:10;;;;;;;3.90;3.10;;;;;;;7.27;53.65;95226.63;5032264;28;20029;-70
2022/02/16 00:21:36;;;;;;;4.18;2.63;;;;;;;7.43;53.23;95260.88;5050592;28;20102;-69
2022/02/16 00:24:01;;;;;;;3.85;2.70;;;;;;;7.23;53.55;95217.66;5032643;28;20047;-69
2022/02/16 00:26:27;;;;;;;2.42;2.22;;;;;;;7.39;53.11;95233.38;5034633;28;20029;-71
2022/02/16 00:28:52;;;;;;;2.50;2.30;;;;;;;7.44;52.42;95238.63;5036497;28;20029;-70
2022/02/16 00:31:18;;;;;;;2.25;1.80;;;;;;;7.35;52.52;95237.66;5053640;28;20682;-70
2022/02/16 00:33:43;;;;;;;2.45;2.00;;;;;;;7.42;52.00;95212.44;5056479;28;20029;-70
2022/02/16 00:36:09;;;;;;;2.05;1.83;;;;;;;7.69;51.93;95232.25;5074579;28;20066;-71
2022/02/16 00:38:34;;;;;;;2.45;2.05;;;;;;;7.66;51.91;95241.53;5056148;28;20029;-69
2022/02/16 00:41:00;;;;;;;3.60;1.75;;;;;;;7.54;51.22;95219.97;5074167;28;20029;-69
2022/02/16 00:43:25;;;;;;;1.60;1.48;;;;;;;7.62;51.33;95206.09;5056273;28;20025;-70
2022/02/16 00:45:50;;;;;;;1.85;1.45;;;;;;;7.34;51.22;95196.38;5060694;28;20484;-69
2022/02/16 00:48:16;;;;;;;1.65;1.23;;;;;;;6.75;52.70;95208.84;5035837;28;20025;-70
2022/02/16 00:50:41;;;;;;;2.30;1.58;;;;;;;6.94;51.16;95179.84;5035462;28;20531;-70
2022/02/16 00:53:07;;;;;;;2.58;1.40;;;;;;;7.26;51.18;95214.44;5053373;28;20029;-70
2022/02/16 00:55:32;;;;;;;0.80;0.70;;;;;;;7.14;51.12;95194.75;5053311;28;20110;-70
2022/02/16 00:57:58;;;;;;;1.10;0.68;;;;;;;7.08;50.57;95188.72;5035133;28;20385;-69
2022/02/16 01:00:23;;;;;;;1.05;0.90;;;;;;;7.31;50.12;95197.72;5034470;28;20642;-69
2022/02/16 01:02:49;;;;;;;2.67;1.10;;;;;;;7.34;49.64;95186.59;5053246;28;20480;-70
2022/02/16 01:05:14;;;;;;;1.48;0.70;;;;;;;7.57;49.25;95224.69;5053219;28;20108;-69
2022/02/16 01:07:39;;;;;;;1.48;0.90;;;;;;;7.53;48.71;95192.72;5035676;28;20035;-70
2022/02/16 01:10:06;;;;;;;1.05;0.60;;;;;;;7.72;49.00;95211.28;5034836;28;20028;-70
2022/02/16 01:12:31;;;;;;;2.97;0.60;;;;;;;7.54;48.56;95172.34;5052911;28;20045;-70
2022/02/16 01:14:57;;;;;;;1.38;1.10;;;;;;;7.37;48.16;95167.50;5034663;28;20363;-69
2022/02/16 01:17:23;;;;;;;1.10;0.60;;;;;;;7.51;48.34;95184.25;5053354;28;20056;-70
2022/02/16 01:19:48;;;;;;;1.77;0.77;;;;;;;7.34;47.94;95162.00;5055086;28;20083;-70
2022/02/16 01:22:13;;;;;;;2.60;0.80;;;;;;;7.31;47.80;95160.69;5054702;28;20119;-71
2022/02/16 01:24:39;;;;;;;1.20;0.43;;;;;;;7.60;47.37;95171.19;5072848;28;20052;-70
2022/02/16 01:27:04;;;;;;;0.95;0.60;;;;;;;7.09;47.99;95166.47;5054931;28;20036;-70
2022/02/16 01:29:30;;;;;;;0.40;0.40;;;;;;;7.46;47.70;95199.41;5054548;28;20033;-70
2022/02/16 01:31:55;;;;;;;2.83;0.60;;;;;;;7.29;47.41;95176.84;5034079;28;20033;-69
2022/02/16 01:34:20;;;;;;;0.85;0.50;;;;;;;7.43;46.75;95176.97;5053006;28;20104;-69
2022/02/16 01:36:46;;;;;;;0.52;0.50;;;;;;;7.48;46.77;95189.34;5052247;28;20025;-70
2022/02/16 01:39:12;;;;;;;1.05;0.65;;;;;;;7.73;46.52;95173.16;5034075;28;20035;-72
2022/02/16 01:41:38;;;;;;;1.20;0.50;;;;;;;7.39;46.70;95140.75;5052373;28;20033;-70
2022/02/16 01:44:04;;;;;;;1.92;0.40;;;;;;;7.53;46.40;95157.53;5034666;28;20496;-70
2022/02/16 01:46:29;;;;;;;1.00;0.40;;;;;;;7.49;46.34;95145.94;5052033;28;20029;-70
2022/02/16 01:48:55;;;;;;;0.60;0.45;;;;;;;7.45;46.79;95153.63;5034456;28;20079;-72
2022/02/16 01:51:21;;;;;;;1.40;0.40;;;;;;;7.44;46.82;95132.75;5052280;28;20021;-69
2022/02/16 01:53:47;;;;;;;0.73;0.57;;;;;;;7.57;45.96;95126.75;5034492;28;20032;-70
2022/02/16 01:56:13;;;;;;;0.85;0.47;;;;;;;7.28;46.83;95171.84;5034636;28;20059;-70
2022/02/16 01:58:40;;;;;;;0.50;0.40;;;;;;;7.69;46.04;95139.59;5051798;28;20078;-70
2022/02/16 02:01:06;;;;;;;3.20;0.70;;;;;;;7.84;45.26;95149.19;5028363;28;20025;-70
2022/02/16 02:03:33;;;;;;;0.60;0.55;;;;;;;7.91;46.39;95157.56;5052060;28;20381;-70
2022/02/16 02:05:58;;;;;;;1.27;0.50;;;;;;;7.90;46.36;95134.81;5052193;28;20025;-70
2022/02/16 02:08:25;;;;;;;2.17;0.70;;;;;;;7.88;46.42;95148.31;5051817;28;20035;-71
2022/02/16 02:10:56;;;;;;;0.70;0.55;;;;;;;7.82;46.51;95134.34;5051897;28;20024;-70
2022/02/16 02:13:22;;;;;;;3.92;0.55;;;;;;;7.61;45.89;95087.28;5034067;28;20047;-70
2022/02/16 02:15:47;;;;;;;1.92;0.65;;;;;;;8.00;46.50;95132.00;5028747;28;20689;-70
2022/02/16 02:18:14;;;;;;;1.83;0.70;;;;;;;7.74;46.63;95124.41;5067105;28;20085;-70
2022/02/16 02:20:40;;;;;;;2.15;0.88;;;;;;;7.97;46.39;95127.28;5052673;28;20079;-70
2022/02/16 02:23:06;;;;;;;1.08;0.88;;;;;;;7.90;46.35;95118.91;5071661;28;20028;-70
2022/02/16 02:25:50;;;;;;;0.80;0.70;;;;;;;7.89;46.79;95104.88;5053663;28;20055;-70
2022/02/16 02:28:18;;;;;;;1.08;0.80;;;;;;;7.61;47.25;95109.22;5053663;28;20115;-70
2022/02/16 02:30:46;;;;;;;0.70;0.70;;;;;;;7.62;47.61;95118.75;5044752;28;20017;-70
2022/02/16 02:33:13;;;;;;;1.70;1.00;;;;;;;7.79;47.41;95127.00;5033500;28;20040;-70
2022/02/16 02:35:38;;;;;;;1.08;0.88;;;;;;;7.79;47.49;95108.47;5033816;28;20025;-70
2022/02/16 02:38:05;;;;;;;2.03;1.10;;;;;;;7.92;47.75;95130.00;5034008;28;20552;-70
2022/02/16 02:40:30;;;;;;;2.75;0.98;;;;;;;7.94;47.77;95107.47;5033999;28;20029;-70
2022/02/16 02:42:55;;;;;;;2.25;0.80;;;;;;;7.90;47.31;95101.16;5033794;28;20052;-70
2022/02/16 02:45:21;;;;;;;1.17;0.90;;;;;;;7.83;47.23;95084.84;5050828;28;20024;-70
2022/02/16 02:47:46;;;;;;;1.27;0.80;;;;;;;7.86;47.54;95084.25;5045415;28;20020;-70
2022/02/16 02:50:12;;;;;;;1.25;0.80;;;;;;;7.90;47.32;95082.63;5052913;28;20504;-70
2022/02/16 02:52:37;;;;;;;0.73;0.70;;;;;;;8.04;47.26;95112.59;5070808;28;20039;-70
2022/02/16 02:55:04;;;;;;;3.28;1.00;;;;;;;7.84;47.25;95081.13;5053167;28;20389;-70
2022/02/16 02:57:29;;;;;;;4.07;0.85;;;;;;;7.67;46.84;95046.41;5071123;28;20124;-70
2022/02/16 02:59:55;;;;;;;4.38;1.08;;;;;;;7.90;46.99;95081.84;5052726;28;20532;-70
2022/02/16 03:02:20;;;;;;;7.97;1.30;;;;;;;7.79;46.98;95065.31;5050384;28;20052;-70
2022/02/16 03:04:45;;;;;;;0.98;0.80;;;;;;;7.84;47.14;95069.75;5033132;28;20033;-69
2022/02/16 03:07:11;;;;;;;1.13;0.80;;;;;;;7.82;47.15;95070.00;5050645;28;20119;-72
2022/02/16 03:09:36;;;;;;;1.35;0.73;;;;;;;7.76;47.44;95056.06;5050881;28;20021;-72
2022/02/16 03:12:02;;;;;;;0.70;0.63;;;;;;;7.67;47.40;95043.75;5032702;28;20055;-72
2022/02/16 03:14:28;;;;;;;0.75;0.70;;;;;;;7.94;47.28;95085.50;5051049;28;20151;-71
2022/02/16 03:16:53;;;;;;;0.88;0.50;;;;;;;7.95;47.10;95087.06;5050237;28;20036;-71
2022/02/16 03:19:19;;;;;;;0.70;0.70;;;;;;;7.86;47.31;95062.28;5050239;28;20032;-72
2022/02/16 03:21:44;;;;;;;1.00;0.57;;;;;;;7.78;47.00;95046.00;5050462;28;20175;-72
2022/02/16 03:24:10;;;;;;;4.30;1.00;;;;;;;7.92;47.58;95066.44;5050613;28;20017;-69
2022/02/16 03:26:35;;;;;;;0.82;0.68;;;;;;;7.99;47.72;95062.34;5032825;28;20031;-72
2022/02/16 03:29:00;;;;;;;0.70;0.70;;;;;;;8.02;47.73;95069.72;5050367;28;20458;-70
2022/02/16 03:31:26;;;;;;;3.20;0.73;;;;;;;7.35;47.53;94957.94;5031879;28;20021;-70
2022/02/16 03:33:51;;;;;;;3.17;0.60;;;;;;;7.81;47.79;95028.72;5063176;28;20056;-70
2022/02/16 03:36:17;;;;;;;0.70;0.70;;;;;;;7.99;47.77;95043.81;5070721;28;20118;-70
2022/02/16 03:38:42;;;;;;;1.42;0.90;;;;;;;7.98;47.66;95034.28;5058727;28;20032;-70
2022/02/16 03:41:08;;;;;;;5.50;1.30;;;;;;;8.08;47.48;95039.41;5050364;28;20029;-70
2022/02/16 03:43:33;;;;;;;1.60;1.10;;;;;;;8.17;47.45;95058.09;5032638;28;20051;-70
2022/02/16 03:45:59;;;;;;;3.33;1.00;;;;;;;8.00;48.04;95021.53;5050117;28;20075;-70
2022/02/16 03:48:24;;;;;;;1.92;1.15;;;;;;;8.14;47.82;95031.38;5049910;28;20025;-70
2022/02/16 03:50:49;;;;;;;0.63;0.63;;;;;;;8.39;48.09;95048.75;5050037;28;20385;-71
2022/02/16 03:53:16;;;;;;;2.88;1.20;;;;;;;8.38;47.90;95037.34;5049259;28;20724;-71
2022/02/16 03:55:42;;;;;;;2.05;0.90;;;;;;;8.42;47.88;95014.50;5049950;28;20025;-70
2022/02/16 03:58:07;;;;;;;1.20;1.10;;;;;;;8.56;47.73;95033.06;5032620;28;20029;-71
2022/02/16 04:00:33;;;;;;;1.08;0.98;;;;;;;8.62;47.77;95023.94;5050427;28;20060;-70
2022/02/16 04:02:58;;;;;;;2.03;1.17;;;;;;;8.70;47.62;95031.22;5036322;28;20412;-71
2022/02/16 04:05:24;;;;;;;1.27;0.90;;;;;;;8.63;47.31;95028.16;5036687;28;20051;-71
2022/02/16 04:07:49;;;;;;;1.38;0.98;;;;;;;8.70;47.34;95039.19;5036377;28;20048;-71
2022/02/16 04:10:14;;;;;;;2.53;0.93;;;;;;;8.79;47.52;95047.22;5036031;28;20025;-69
2022/02/16 04:12:40;;;;;;;1.23;0.85;;;;;;;8.70;47.30;95019.81;5036591;28;20032;-68
2022/02/16 04:15:06;;;;;;;1.35;1.02;;;;;;;8.80;47.33;95036.34;5054456;28;20104;-68
2022/02/16 04:17:34;;;;;;;1.58;1.17;;;;;;;8.77;47.78;95028.19;5053858;28;20123;-69
2022/02/16 04:19:59;;;;;;;1.00;0.77;;;;;;;8.57;47.47;95014.22;5074123;28;20036;-71
2022/02/16 04:22:25;;;;;;;1.08;1.00;;;;;;;8.37;47.18;95005.84;5074265;28;20415;-71
2022/02/16 04:24:50;;;;;;;0.75;0.75;;;;;;;8.54;47.90;95027.25;5074269;28;20100;-71
2022/02/16 04:27:15;;;;;;;2.90;0.90;;;;;;;8.43;47.98;95008.09;5056193;28;20393;-71
2022/02/16 04:29:41;;;;;;;1.70;0.95;;;;;;;8.43;47.85;94999.38;5074380;28;20047;-71
2022/02/16 04:32:07;;;;;;;2.63;1.00;;;;;;;8.49;47.87;95006.94;5058232;28;20148;-69
2022/02/16 04:34:33;;;;;;;1.38;1.00;;;;;;;8.65;47.73;95020.72;5063679;28;20040;-71
2022/02/16 04:36:59;;;;;;;0.68;0.65;;;;;;;8.55;47.48;94997.03;5073735;28;20031;-71
2022/02/16 04:39:24;;;;;;;0.80;0.70;;;;;;;8.50;47.45;94975.94;5073425;28;20024;-71
2022/02/16 04:41:50;;;;;;;2.35;0.80;;;;;;;8.63;47.33;94979.66;5073227;28;20551;-71
2022/02/16 04:44:15;;;;;;;1.83;1.00;;;;;;;8.47;47.42;94955.31;5073657;28;20040;-69
2022/02/16 04:46:41;;;;;;;2.20;0.68;;;;;;;8.69;47.53;94978.47;5037638;28;20078;-71
2022/02/16 04:49:06;;;;;;;1.30;0.70;;;;;;;8.77;47.24;94977.78;5035154;28;20021;-68
2022/02/16 04:51:31;;;;;;;3.53;0.80;;;;;;;8.87;47.12;94980.22;5053532;28;20029;-71
2022/02/16 04:53:57;;;;;;;2.13;0.88;;;;;;;9.00;46.98;94984.72;5053611;28;20064;-69
2022/02/16 04:56:22;;;;;;;2.25;0.65;;;;;;;9.06;46.76;94986.22;5053711;28;20029;-69
2022/02/16 04:58:47;;;;;;;1.15;0.70;;;;;;;8.99;46.66;94977.06;5053034;28;20029;-69
2022/02/16 05:01:14;;;;;;;1.27;0.80;;;;;;;8.95;46.21;94971.56;5034537;28;20124;-71
2022/02/16 05:03:39;;;;;;;1.50;0.80;;;;;;;8.97;46.50;94973.94;5052901;28;20033;-71
2022/02/16 05:06:05;;;;;;;1.05;0.95;;;;;;;8.81;46.27;94957.56;5053066;28;20048;-71
2022/02/16 05:08:30;;;;;;;3.42;0.77;;;;;;;8.90;46.49;94970.88;5034963;28;20025;-70
2022/02/16 05:10:56;;;;;;;1.00;0.68;;;;;;;8.74;46.33;94935.94;5034853;28;20032;-71
2022/02/16 05:13:21;;;;;;;1.00;0.90;;;;;;;8.93;46.48;94962.34;5033839;28;20027;-69
2022/02/16 05:15:46;;;;;;;1.10;0.88;;;;;;;8.82;46.60;94948.50;5052675;28;20033;-71
2022/02/16 05:18:12;;;;;;;1.63;1.20;;;;;;;8.94;46.05;94961.25;5034725;28;20458;-71
2022/02/16 05:20:37;;;;;;;2.72;1.35;;;;;;;8.91;46.24;94956.56;5034644;28;20021;-71
2022/02/16 05:23:06;;;;;;;1.10;0.82;;;;;;;8.83;46.48;94937.59;5052919;28;20017;-71
2022/02/16 05:25:32;;;;;;;2.38;1.02;;;;;;;8.90;46.11;94942.50;5035014;28;20021;-71
2022/02/16 05:27:57;;;;;;;3.05;0.85;;;;;;;8.92;46.23;94937.69;5035147;28;20067;-71
2022/02/16 05:30:22;;;;;;;3.38;1.00;;;;;;;8.93;45.83;94938.47;5052002;28;20021;-71
2022/02/16 05:32:48;;;;;;;4.82;1.08;;;;;;;8.93;46.01;94933.16;5051963;28;20025;-71
2022/02/16 05:35:13;;;;;;;3.97;0.90;;;;;;;8.89;45.98;94917.06;5052666;28;20111;-70
2022/02/16 05:37:40;;;;;;;0.93;0.85;;;;;;;9.06;45.99;94946.41;5052349;28;20028;-70
2022/02/16 05:40:06;;;;;;;7.93;1.65;;;;;;;8.89;45.93;94908.31;5034249;28;20025;-70
2022/02/16 05:42:35;;;;;;;2.38;1.00;;;;;;;9.07;45.69;94929.41;5052369;28;20021;-70
2022/02/16 05:45:00;;;;;;;1.88;0.80;;;;;;;9.07;45.54;94913.47;5034718;28;20112;-69
2022/02/16 05:47:26;;;;;;;5.63;0.85;;;;;;;9.23;45.24;94923.75;5052325;28;20113;-70
2022/02/16 05:49:51;;;;;;;2.40;0.88;;;;;;;9.27;44.88;94924.72;5053025;28;20021;-71
2022/02/16 05:52:16;;;;;;;1.95;0.80;;;;;;;9.30;45.27;94908.97;5035046;28;20029;-70
2022/02/16 05:54:42;;;;;;;1.33;0.93;;;;;;;9.21;44.67;94886.88;5034761;28;20033;-70
2022/02/16 05:57:07;;;;;;;1.88;1.00;;;;;;;9.27;44.67;94903.50;5035034;28;20128;-71
2022/02/16 05:59:34;;;;;;;0.82;0.70;;;;;;;9.14;44.75;94883.09;5034914;28;20021;-70
2022/02/16 06:02:03;;;;;;;0.77;0.70;;;;;;;9.35;44.53;94905.41;5051812;28;20025;-71
2022/02/16 06:04:30;;;;;;;0.95;0.90;;;;;;;9.22;44.57;94885.03;5052436;28;20019;-69
2022/02/16 06:06:56;;;;;;;3.42;0.98;;;;;;;9.23;44.42;94897.22;5052016;28;20033;-70
2022/02/16 06:09:21;;;;;;;2.00;0.90;;;;;;;9.15;44.08;94885.44;5051748;28;20683;-70
2022/02/16 06:11:46;;;;;;;1.75;0.90;;;;;;;9.22;44.14;94882.38;5051727;28;20457;-71
2022/02/16 06:14:12;;;;;;;2.72;1.20;;;;;;;9.40;44.25;94913.25;5051939;28;20017;-70
2022/02/16 06:16:37;;;;;;;7.30;1.23;;;;;;;9.26;44.48;94886.75;5032996;28;20029;-71
2022/02/16 06:19:03;;;;;;;4.30;1.13;;;;;;;9.30;44.18;94879.78;5033348;28;20024;-69
2022/02/16 06:21:28;;;;;;;5.47;1.10;;;;;;;9.21;44.48;94849.72;5051469;28;20465;-69
2022/02/16 06:23:54;;;;;;;11.40;1.15;;;;;;;9.32;43.73;94864.34;5051037;28;20028;-69
2022/02/16 06:26:19;;;;;;;2.63;0.88;;;;;;;9.54;43.79;94898.06;5051597;28;20061;-69
2022/02/16 06:28:44;;;;;;;3.00;0.85;;;;;;;9.48;43.89;94869.28;5033313;28;20025;-69
2022/02/16 06:31:10;;;;;;;3.95;0.77;;;;;;;9.29;44.05;94833.09;5050315;28;20028;-69
2022/02/16 06:33:35;;;;;;;3.08;1.02;;;;;;;9.64;43.55;94881.09;5033007;28;20024;-69
2022/02/16 06:36:01;;;;;;;1.95;0.70;;;;;;;9.63;43.57;94863.59;5051426;28;20029;-69
2022/02/16 06:38:26;;;;;;;4.13;1.00;;;;;;;9.63;43.98;94858.28;5051100;28;20017;-69
2022/02/16 06:40:51;;;;;;;1.67;0.80;;;;;;;9.68;43.37;94860.81;5051099;28;20504;-69
2022/02/16 06:43:17;;;;;;;2.75;0.88;;;;;;;9.86;43.26;94885.59;5051385;28;20021;-69
2022/02/16 06:45:43;;;;;;;2.40;0.90;;;;;;;9.83;42.77;94879.03;5051360;28;20359;-70
2022/02/16 06:48:08;;;;;;;2.25;0.60;;;;;;;9.80;43.20;94865.56;5050521;28;20029;-69
2022/02/16 06:50:34;;;;;;;4.50;1.27;;;;;;;10.03;43.21;94890.19;5050472;28;20032;-70
2022/02/16 06:52:59;;;;;;;1.23;0.80;;;;;;;9.99;42.82;94882.06;5050928;28;20534;-69
2022/02/16 06:55:24;;;;;;;3.10;0.80;;;;;;;10.05;42.73;94882.72;5050946;28;20556;-69
2022/02/16 06:57:50;;;;;;;1.90;0.93;;;;;;;10.01;42.64;94874.56;5050949;28;20021;-71
2022/02/16 07:00:16;;;;;;;0.90;0.70;;;;;;;10.02;42.72;94854.88;5050449;28;20033;-70
2022/02/16 07:02:45;;;;;;;2.13;1.00;;;;;;;10.27;42.61;94877.34;5050195;28;20110;-71
2022/02/16 07:05:11;;;;;;;1.52;0.70;;;;;;;10.34;41.85;94866.28;5050867;28;20025;-70
2022/02/16 07:07:36;;;;;;;4.57;1.10;;;;;;;10.44;41.69;94860.69;5050948;28;20086;-70
2022/02/16 07:10:03;;;;;;;4.03;0.98;;;;;;;10.67;41.44;94867.44;5032595;28;20102;-69
2022/02/16 07:12:28;;;;;;;2.85;1.10;;;;;;;10.82;41.26;94855.56;5051430;28;20036;-71
2022/02/16 07:14:56;;;;;;;4.40;0.90;;;;;;;10.91;41.12;94837.75;5050904;28;20082;-69
2022/02/16 07:17:22;;;;;;;0.60;0.60;;;;;;;11.14;41.01;94856.19;5049981;28;20024;-71
2022/02/16 07:19:48;;;;;;;2.47;1.23;;;;;;;11.13;41.13;94850.09;5032532;28;20035;-70
2022/02/16 07:22:14;;;;;;;4.00;0.90;;;;;;;11.05;40.39;94823.47;5032844;28;20441;-70
2022/02/16 07:24:39;;;;;;;1.58;0.88;;;;;;;11.18;40.62;94823.31;5033025;28;20028;-69
2022/02/16 07:27:05;;;;;;;2.00;0.95;;;;;;;11.30;39.99;94830.66;5050262;28;20104;-69
2022/02/16 07:29:30;;;;;;;3.85;0.80;;;;;;;11.29;39.59;94820.34;5032499;28;20035;-69
2022/02/16 07:31:55;;;;;;;4.95;0.95;;;;;;;11.43;40.13;94831.59;5031172;28;20020;-68
2022/02/16 07:34:24;;;;;;;2.63;0.80;;;;;;;11.62;38.78;94836.56;5050096;28;20095;-67
2022/02/16 07:36:50;;;;;;;1.23;0.88;;;;;;;11.65;39.01;94843.91;5044737;28;20029;-68
2022/02/16 07:39:15;;;;;;;2.25;0.70;;;;;;;11.39;38.91;94804.03;5050378;28;20036;-69
2022/02/16 07:41:41;;;;;;;0.75;0.60;;;;;;;11.75;39.25;94832.13;5032223;28;20029;-68
2022/02/16 07:44:06;;;;;;;4.28;0.70;;;;;;;11.63;38.85;94809.59;5050244;28;20029;-68
2022/02/16 07:46:32;;;;;;;2.50;0.77;;;;;;;11.45;38.32;94763.59;5049926;28;20032;-68
2022/02/16 07:48:57;;;;;;;3.03;1.27;;;;;;;11.75;37.80;94814.25;5050060;28;20514;-68
2022/02/16 07:51:23;;;;;;;10.95;1.05;;;;;;;11.95;37.66;94818.16;5032511;28;20029;-68
2022/02/16 07:53:49;;;;;;;3.35;0.80;;;;;;;12.08;37.49;94800.34;5050358;28;20438;-68
2022/02/16 07:56:15;;;;;;;8.82;1.50;;;;;;;12.56;37.25;94820.50;5050207;28;20389;-68
2022/02/16 07:58:40;;;;;;;2.42;0.60;;;;;;;12.72;37.20;94813.50;5049861;28;20033;-69
2022/02/16 08:01:05;;;;;;;3.28;0.90;;;;;;;12.90;36.47;94812.25;5050267;28;20029;-68
2022/02/16 08:03:31;;;;;;;1.73;0.80;;;;;;;13.10;36.19;94799.19;5049901;28;20033;-68
2022/02/16 08:05:56;;;;;;;9.60;1.55;;;;;;;13.04;35.86;94760.47;5050180;28;20025;-69
2022/02/16 08:08:22;;;;;;;0.77;0.60;;;;;;;13.33;35.49;94788.97;5050476;28;20036;-68
2022/02/16 08:10:51;;;;;;;1.10;0.75;;;;;;;13.52;35.47;94802.63;5050858;28;20031;-69
2022/02/16 08:13:17;;;;;;;2.60;0.88;;;;;;;13.75;34.88;94808.34;5050511;28;20046;-68
2022/02/16 08:15:43;;;;;;;2.45;0.63;;;;;;;13.88;34.81;94815.28;5050637;28;20235;-68
2022/02/16 08:18:09;;;;;;;1.15;0.70;;;;;;;13.86;34.19;94820.16;5050109;28;20036;-68
2022/02/16 08:20:34;;;;;;;11.90;1.77;;;;;;;13.87;34.31;94786.19;5049902;28;20028;-68
2022/02/16 08:22:59;;;;;;;1.63;0.85;;;;;;;14.04;33.68;94780.66;5050361;28;20078;-67
2022/02/16 08:25:25;;;;;;;2.67;0.68;;;;;;;14.25;33.37;94799.25;5050261;28;20027;-67
2022/02/16 08:27:51;;;;;;;1.52;0.75;;;;;;;14.25;32.56;94792.00;5049861;28;20677;-67
2022/02/16 08:30:17;;;;;;;0.80;0.80;;;;;;;14.55;32.66;94803.28;5050269;28;20035;-67
2022/02/16 08:32:42;;;;;;;1.20;0.70;;;;;;;14.54;33.08;94769.59;5049734;28;20021;-67
2022/02/16 08:35:10;;;;;;;2.65;0.77;;;;;;;14.62;32.74;94786.63;5032451;28;20027;-66
2022/02/16 08:37:36;;;;;;;2.28;0.68;;;;;;;14.44;32.60;94756.66;5050094;28;20037;-67
2022/02/16 08:40:03;;;;;;;0.60;0.50;;;;;;;14.44;32.18;94748.63;5049901;28;20371;-67
2022/02/16 08:42:29;;;;;;;0.50;0.50;;;;;;;14.45;32.16;94728.78;5050189;28;20474;-65
2022/02/16 08:44:58;;;;;;;2.20;0.75;;;;;;;15.11;31.41;94778.47;5050198;28;20108;-66
2022/02/16 08:47:24;;;;;;;1.75;0.80;;;;;;;15.09;31.91;94759.25;5051449;28;20377;-68
2022/02/16 08:49:50;;;;;;;2.10;0.63;;;;;;;15.54;31.31;94772.34;5053493;28;20044;-68
2022/02/16 08:52:15;;;;;;;1.83;0.40;;;;;;;15.79;31.05;94770.31;5053743;28;20110;-68
2022/02/16 08:54:41;;;;;;;1.33;0.85;;;;;;;15.64;30.36;94751.53;5053862;28;20036;-70
2022/02/16 08:57:06;;;;;;;0.88;0.68;;;;;;;15.92;30.58;94757.63;5053810;28;20449;-69
2022/02/16 08:59:33;;;;;;;1.88;0.68;;;;;;;15.93;30.33;94759.16;5053352;28;20067;-70
2022/02/16 09:01:59;;;;;;;3.13;0.95;;;;;;;15.32;30.30;94663.81;5052443;28;20021;-69
2022/02/16 09:04:24;;;;;;;2.53;0.80;;;;;;;15.96;29.79;94742.34;5035314;28;20027;-69
2022/02/16 09:09:37;;;;;;;3.08;0.90;;;;;;;16.07;30.00;94748.78;5053048;28;20036;-69
2022/02/16 09:12:06;;;;;;;3.10;0.80;;;;;;;16.05;30.55;94767.09;5052811;28;20407;-68
2022/02/16 09:14:32;;;;;;;1.45;0.77;;;;;;;15.83;30.49;94740.91;5053226;28;20082;-69
2022/02/16 09:16:58;;;;;;;1.83;0.65;;;;;;;15.64;30.53;94714.00;5052579;28;20079;-68
2022/02/16 09:19:23;;;;;;;2.88;0.80;;;;;;;15.25;30.71;94652.94;5052685;28;20020;-69
2022/02/16 09:21:49;;;;;;;5.05;0.70;;;;;;;15.57;30.66;94691.22;5052624;28;20107;-67
2022/02/16 09:24:14;;;;;;;1.30;0.93;;;;;;;15.44;31.35;94667.53;5052933;28;20021;-69
2022/02/16 09:26:40;;;;;;;1.73;0.90;;;;;;;15.40;30.91;94637.97;5053092;28;20024;-69
2022/02/16 09:29:05;;;;;;;1.25;0.57;;;;;;;15.82;31.30;94712.53;5053108;28;20112;-70
2022/02/16 09:31:31;;;;;;;0.52;0.52;;;;;;;15.72;31.12;94680.88;5052900;28;20036;-68
2022/02/16 09:33:57;;;;;;;1.10;0.68;;;;;;;15.64;30.93;94682.59;5052285;28;20048;-67
2022/02/16 09:36:23;;;;;;;0.98;0.55;;;;;;;15.68;31.01;94671.97;5052433;28;20465;-67
2022/02/16 09:38:48;;;;;;;2.22;0.60;;;;;;;15.97;31.27;94689.47;5034787;28;20035;-67
2022/02/16 09:41:16;;;;;;;1.17;0.55;;;;;;;16.06;31.09;94677.44;5052458;28;20025;-67
2022/02/16 09:43:46;;;;;;;0.85;0.63;;;;;;;16.35;30.70;94681.53;5052513;28;20029;-67
2022/02/16 09:46:11;;;;;;;0.68;0.50;;;;;;;16.52;30.44;94691.06;5052432;28;20431;-68
2022/02/16 09:48:40;;;;;;;3.00;0.50;;;;;;;16.67;29.97;94697.53;5051665;28;20044;-67
2022/02/16 09:51:06;;;;;;;0.50;0.50;;;;;;;16.35;29.84;94640.50;5052094;28;20021;-68
2022/02/16 09:53:31;;;;;;;1.83;0.70;;;;;;;16.65;29.68;94656.81;5052414;28;20389;-67
2022/02/16 09:55:57;;;;;;;2.50;0.60;;;;;;;16.73;29.58;94696.13;5052676;28;20066;-67
2022/02/16 09:58:22;;;;;;;1.30;0.60;;;;;;;16.54;29.44;94677.31;5050922;28;20488;-69
2022/02/16 10:01:04;;;;;;;0.65;0.50;;;;;;;16.59;29.40;94671.66;5052270;28;20071;-68
2022/02/16 10:03:30;;;;;;;1.95;0.52;;;;;;;16.46;29.68;94665.66;5050084;28;20025;-69
2022/02/16 10:05:56;;;;;;;1.10;0.65;;;;;;;16.05;29.71;94600.78;5052454;28;20564;-69
2022/02/16 10:08:46;;;;;;;0.88;0.88;;;;;;;16.60;30.00;94670.53;5019350;28;20398;-69
2022/02/16 10:11:13;;;;;;;0.60;0.57;;;;;;;14.95;31.21;94612.38;5053580;28;20033;-67
2022/02/16 10:13:39;;;;;;;0.75;0.45;;;;;;;15.88;30.83;94600.41;5052339;28;20032;-68
2022/02/16 10:16:05;;;;;;;0.85;0.60;;;;;;;16.09;30.22;94644.56;5051873;28;20163;-70
2022/02/16 10:18:31;;;;;;;2.60;0.63;;;;;;;15.77;30.70;94592.91;5052712;28;20437;-68
2022/02/16 10:21:10;;;;;;;1.25;0.90;;;;;;;16.72;30.51;94656.97;5071532;28;20056;-68
2022/02/16 10:23:44;;;;;;;0.68;0.45;;;;;;;16.15;31.04;94660.38;5071813;28;20028;-67
2022/02/16 10:26:10;;;;;;;1.90;0.60;;;;;;;16.66;31.16;94661.06;5071454;28;20392;-68
2022/02/16 10:28:43;;;;;;;0.80;0.50;;;;;;;17.24;30.70;94650.25;5071277;28;20025;-68
2022/02/16 10:31:10;;;;;;;3.42;0.60;;;;;;;17.69;30.26;94651.38;5071125;28;20021;-71
2022/02/16 10:33:44;;;;;;;0.85;0.60;;;;;;;18.10;29.28;94652.41;5057369;28;20120;-66
2022/02/16 10:36:11;;;;;;;1.10;0.57;;;;;;;18.07;28.87;94655.06;5033201;28;20048;-66
2022/02/16 10:38:56;;;;;;;1.50;0.70;;;;;;;16.83;31.01;94657.97;5032852;28;20071;-68
2022/02/16 10:41:43;;;;;;;0.43;0.43;;;;;;;16.25;32.02;94657.94;5051066;28;20441;-68
2022/02/16 10:44:31;;;;;;;1.67;0.60;;;;;;;14.63;34.62;94661.59;5051291;28;20032;-67
2022/02/16 10:47:10;;;;;;;0.70;0.52;;;;;;;13.79;36.71;94620.22;5050972;28;20039;-66
2022/02/16 10:49:37;;;;;;;1.17;0.60;;;;;;;13.57;38.16;94662.69;5049573;28;20493;-67
2022/02/16 10:52:15;;;;;;;1.10;0.40;;;;;;;12.54;40.57;94649.28;5032801;28;20071;-67
2022/02/16 10:55:00;;;;;;;1.73;0.90;;;;;;;13.85;38.86;94660.09;5051051;28;20111;-67
2022/02/16 10:57:26;;;;;;;0.68;0.57;;;;;;;12.69;41.32;94654.00;5051910;28;20537;-67
2022/02/16 10:59:52;;;;;;;0.80;0.70;;;;;;;13.39;39.86;94662.88;5050862;28;20025;-66
2022/02/16 11:02:21;;;;;;;3.00;0.50;;;;;;;13.98;38.75;94646.38;5032248;28;20404;-66
2022/02/16 11:04:47;;;;;;;0.60;0.52;;;;;;;14.08;38.96;94649.72;5032880;28;20060;-69
2022/02/16 11:07:18;;;;;;;0.50;0.40;;;;;;;14.42;38.17;94657.19;5033378;28;20032;-69
2022/02/16 11:09:48;;;;;;;0.50;0.50;;;;;;;12.38;43.23;94641.88;5051231;28;20025;-68
2022/02/16 11:12:13;;;;;;;0.50;0.40;;;;;;;14.57;39.14;94645.78;5050978;28;20028;-69
2022/02/16 11:14:40;;;;;;;1.20;0.40;;;;;;;13.70;40.64;94650.88;5051427;28;20028;-69
2022/02/16 11:17:09;;;;;;;0.88;0.60;;;;;;;13.13;41.43;94635.69;5051012;28;20024;-68
2022/02/16 11:19:35;;;;;;;0.65;0.40;;;;;;;12.38;43.28;94639.22;5058269;28;20028;-70
2022/02/16 11:22:14;;;;;;;1.27;0.50;;;;;;;13.24;42.45;94648.28;5050715;28;20052;-68
2022/02/16 11:24:57;;;;;;;2.47;0.50;;;;;;;13.40;42.05;94647.63;5032786;28;20029;-68
2022/02/16 11:27:31;;;;;;;1.63;0.55;;;;;;;13.21;42.97;94645.50;5032848;28;20037;-69
2022/02/16 11:29:59;;;;;;;0.38;0.38;;;;;;;14.21;40.89;94627.16;5032525;28;20033;-68
2022/02/16 11:32:30;;;;;;;0.90;0.32;;;;;;;14.78;40.29;94628.75;5050014;28;20435;-68
2022/02/16 11:35:16;;;;;;;0.47;0.30;;;;;;;12.67;44.34;94635.69;5050374;28;20021;-68
2022/02/16 11:37:43;;;;;;;0.52;0.45;;;;;;;13.32;43.80;94654.66;5032755;28;20541;-68
2022/02/16 11:40:09;;;;;;;0.38;0.38;;;;;;;13.06;44.72;94638.13;5050200;28;20144;-68